Terminal Aerodrome Forecast
Issued by NWS

Home | Current Version | Previous Version | Text Only | Print | Product List | Glossary On
Versions: 1 2 3 4 5 6 7 8 9 10 11 12 13 14 15 16 17 18 19 20 21
000
FTPA31 PHFO 242340
TAFHNY
TAF
PHNY 242340Z 2500/2524 18010KT P6SM VCSH SCT015 OVC025
     FM250500 10010KT P6SM VCSH SCT015 BKN040
     FM252000 04014G22KT P6SM SCT015 SCT035=

USA.gov is the U.S. government's official web portal to all federal, state and local government web resources and services.